createdAt,value
2019-04-27T00:03:41.327Z,12.70
2019-04-27T00:07:55.672Z,12.20
2019-04-27T00:12:00.653Z,12.20
2019-04-27T00:16:10.018Z,13.00
2019-04-27T00:20:24.067Z,13.20
2019-04-27T00:24:29.811Z,12.70
2019-04-27T00:28:35.719Z,12.50
2019-04-27T00:32:43.054Z,13.30
2019-04-27T00:37:05.443Z,13.10
2019-04-27T00:41:14.240Z,12.40
2019-04-27T00:45:20.311Z,13.00
2019-04-27T00:49:26.078Z,13.60
2019-04-27T00:53:33.400Z,14.00
2019-04-27T00:57:58.926Z,13.40
2019-04-27T01:02:07.135Z,12.40
2019-04-27T01:06:14.781Z,11.80
2019-04-27T01:10:23.270Z,12.60
2019-04-27T01:14:28.975Z,12.40
2019-04-27T01:18:34.706Z,12.10
2019-04-27T01:22:40.375Z,11.40
2019-04-27T01:26:54.486Z,11.00
2019-04-27T01:31:01.815Z,11.20
2019-04-27T01:35:08.677Z,11.00
2019-04-27T01:39:16.380Z,10.70
2019-04-27T01:43:22.051Z,10.50
2019-04-27T01:47:28.946Z,10.60
2019-04-27T01:51:34.817Z,10.50
2019-04-27T01:55:40.781Z,10.40
2019-04-27T01:59:46.603Z,10.30
2019-04-27T02:04:03.891Z,10.20
2019-04-27T02:08:10.186Z,10.30
2019-04-27T02:12:15.943Z,10.20
2019-04-27T02:16:21.655Z,10.20
2019-04-27T02:20:29.954Z,10.30
2019-04-27T02:24:35.770Z,10.30
2019-04-27T02:28:43.098Z,10.40
2019-04-27T02:33:02.626Z,10.40
2019-04-27T02:37:10.215Z,10.40
2019-04-27T02:41:15.753Z,10.70
2019-04-27T02:45:22.197Z,10.90
2019-04-27T02:49:30.289Z,10.80
2019-04-27T02:53:54.328Z,10.70
2019-04-27T02:58:00.150Z,10.40
2019-04-27T03:02:23.468Z,10.80
2019-04-27T03:06:30.067Z,10.80
2019-04-27T03:10:36.013Z,10.50
2019-04-27T03:14:41.461Z,10.50
2019-04-27T03:18:50.793Z,10.30
2019-04-27T03:23:00.112Z,10.20
2019-04-27T03:27:06.966Z,10.20
2019-04-27T03:31:14.075Z,10.30
2019-04-27T03:35:22.606Z,10.20
2019-04-27T03:39:29.992Z,10.10
2019-04-27T03:43:35.269Z,10.10
2019-04-27T03:47:41.110Z,10.00
2019-04-27T03:51:49.905Z,10.00
2019-04-27T03:56:04.563Z,9.60
2019-04-27T04:00:12.601Z,9.50
2019-04-27T04:04:19.638Z,9.50
2019-04-27T04:08:25.403Z,9.60
2019-04-27T04:12:40.000Z,9.60
2019-04-27T04:16:49.912Z,9.60
2019-04-27T04:20:55.606Z,9.50
2019-04-27T04:25:01.267Z,9.40
2019-04-27T04:29:06.947Z,9.30
2019-04-27T04:33:12.612Z,9.20
2019-04-27T04:37:19.618Z,9.10
2019-04-27T04:41:30.356Z,9.20
2019-04-27T04:45:46.273Z,9.30
2019-04-27T04:50:07.367Z,9.40
2019-04-27T04:53:59.919Z,9.50
2019-04-27T04:58:05.693Z,9.60
2019-04-27T05:02:11.426Z,9.70
2019-04-27T05:06:18.824Z,9.80
2019-04-27T05:10:24.670Z,9.80
2019-04-27T05:14:30.313Z,9.80
2019-04-27T05:18:35.995Z,9.80
2019-04-27T05:22:41.670Z,9.90
2019-04-27T05:26:48.741Z,10.00
2019-04-27T05:30:54.517Z,10.10
2019-04-27T05:35:00.185Z,10.10
2019-04-27T05:39:09.778Z,10.20
2019-04-27T05:43:17.168Z,10.40
2019-04-27T05:47:24.511Z,10.80
2019-04-27T05:51:36.647Z,10.70
2019-04-27T05:55:39.257Z,10.90
2019-04-27T05:59:45.972Z,11.00
2019-04-27T06:03:51.664Z,11.10
2019-04-27T06:07:58.933Z,11.60
2019-04-27T06:12:04.743Z,11.70
2019-04-27T06:16:10.424Z,11.70
2019-04-27T06:20:16.325Z,11.70
2019-04-27T06:24:22.009Z,11.80
2019-04-27T06:28:29.025Z,11.50
2019-04-27T06:32:35.100Z,11.80
2019-04-27T06:36:41.748Z,11.80
2019-04-27T06:40:48.958Z,11.90
2019-04-27T06:44:54.694Z,12.50
2019-04-27T06:49:00.387Z,12.80
2019-04-27T06:53:06.141Z,12.90
2019-04-27T06:57:11.836Z,12.90
2019-04-27T07:01:19.055Z,13.10
2019-04-27T07:05:25.820Z,13.40
2019-04-27T07:09:31.514Z,13.60
2019-04-27T07:13:38.928Z,14.30
2019-04-27T07:17:44.695Z,14.40
2019-04-27T07:21:50.514Z,14.90
2019-04-27T07:25:56.369Z,15.10
2019-04-27T07:30:02.192Z,15.30
2019-04-27T07:34:09.374Z,14.50
2019-04-27T07:38:15.173Z,14.50
2019-04-27T07:42:21.983Z,14.40
2019-04-27T07:46:29.940Z,15.40
2019-04-27T07:50:35.293Z,14.40
2019-04-27T07:54:41.125Z,13.90
2019-04-27T07:58:46.828Z,14.30
2019-04-27T08:02:52.520Z,14.10
2019-04-27T08:06:59.547Z,14.30
2019-04-27T08:11:05.410Z,13.90
2019-04-27T08:15:11.687Z,14.00
2019-04-27T08:19:17.393Z,14.80
2019-04-27T08:23:23.079Z,15.30
2019-04-27T08:27:30.543Z,15.70
2019-04-27T08:31:40.583Z,15.40
2019-04-27T08:35:46.353Z,15.90
2019-04-27T08:39:52.278Z,16.00
2019-04-27T08:43:58.730Z,15.50
2019-04-27T08:48:04.588Z,15.80
2019-04-27T08:52:10.291Z,14.90
2019-04-27T08:56:16.086Z,15.10
2019-04-27T09:00:21.988Z,15.20
2019-04-27T09:04:28.853Z,15.70
2019-04-27T09:08:36.181Z,16.00
2019-04-27T09:12:55.332Z,15.40
2019-04-27T09:17:05.761Z,14.90
2019-04-27T09:21:11.514Z,14.50
2019-04-27T09:25:17.216Z,14.10
2019-04-27T09:29:23.886Z,14.60
2019-04-27T09:33:29.595Z,15.20
2019-04-27T09:37:36.678Z,14.80
2019-04-27T09:41:42.387Z,14.60
2019-04-27T09:45:49.171Z,14.40
2019-04-27T09:49:56.483Z,14.70
2019-04-27T09:54:03.210Z,14.50
2019-04-27T09:58:08.908Z,14.40
2019-04-27T10:02:16.401Z,14.40
2019-04-27T10:06:22.247Z,14.70
2019-04-27T10:10:28.027Z,14.50
2019-04-27T10:14:33.792Z,14.60
2019-04-27T10:18:39.593Z,14.70
2019-04-27T10:22:46.401Z,14.00
2019-04-27T10:26:52.364Z,13.90
2019-04-27T10:30:58.135Z,13.90
2019-04-27T10:35:05.494Z,14.20
2019-04-27T10:39:14.711Z,14.30
2019-04-27T10:43:20.437Z,14.60
2019-04-27T10:47:26.326Z,14.40
2019-04-27T10:51:32.133Z,14.00
2019-04-27T10:55:37.861Z,13.90
2019-04-27T10:59:43.553Z,14.20
2019-04-27T11:03:55.481Z,14.30
2019-04-27T11:08:01.305Z,14.00
2019-04-27T11:12:07.321Z,14.10
2019-04-27T11:16:13.042Z,14.40
2019-04-27T11:20:18.970Z,14.00
2019-04-27T11:24:24.722Z,13.90
2019-04-27T11:28:30.427Z,13.90
2019-04-27T11:32:36.185Z,14.20
2019-04-27T11:36:45.523Z,14.40
2019-04-27T11:40:51.033Z,14.60
2019-04-27T11:44:58.311Z,14.40
2019-04-27T11:49:04.349Z,14.50
2019-04-27T11:53:22.080Z,15.10
2019-04-27T11:57:17.705Z,15.00
2019-04-27T12:01:24.445Z,15.10
2019-04-27T12:05:30.185Z,16.00
2019-04-27T12:09:35.978Z,15.70
2019-04-27T12:13:41.759Z,16.00
2019-04-27T12:17:47.449Z,16.10
2019-04-27T12:21:53.161Z,15.70
2019-04-27T12:25:58.946Z,15.40
2019-04-27T12:30:10.330Z,15.50
2019-04-27T12:34:16.346Z,15.20
2019-04-27T12:38:22.059Z,15.20
2019-04-27T12:42:27.815Z,15.40
2019-04-27T12:46:33.713Z,15.70
2019-04-27T12:50:39.516Z,15.60
2019-04-27T12:54:52.779Z,15.60
2019-04-27T12:59:03.020Z,16.80
2019-04-27T13:03:09.727Z,17.10
2019-04-27T13:07:16.005Z,17.50
2019-04-27T13:11:22.996Z,16.80
2019-04-27T13:15:28.814Z,15.60
2019-04-27T13:19:36.437Z,16.30
2019-04-27T13:23:42.925Z,16.90
2019-04-27T13:27:51.016Z,16.90
2019-04-27T13:31:57.726Z,18.30
2019-04-27T13:36:03.542Z,17.40
2019-04-27T13:40:12.083Z,17.00
2019-04-27T13:44:19.069Z,16.50
2019-04-27T13:48:42.356Z,16.10
2019-04-27T13:52:48.074Z,16.00
2019-04-27T13:56:53.840Z,15.70
2019-04-27T14:00:59.712Z,16.30
2019-04-27T14:05:06.998Z,16.30
2019-04-27T14:09:12.840Z,17.30
2019-04-27T14:13:19.871Z,16.90
2019-04-27T14:17:25.553Z,16.60
2019-04-27T14:21:32.873Z,15.90
2019-04-27T14:25:39.098Z,15.70
2019-04-27T14:29:44.903Z,15.40
2019-04-27T14:33:52.217Z,15.50
2019-04-27T14:37:58.166Z,15.60
2019-04-27T14:42:04.042Z,15.50
2019-04-27T14:46:09.888Z,15.30
2019-04-27T14:50:15.889Z,14.80
2019-04-27T14:54:21.624Z,13.90
2019-04-27T14:58:28.304Z,14.60
2019-04-27T15:02:34.192Z,15.00
2019-04-27T15:06:39.892Z,15.00
2019-04-27T15:10:46.615Z,14.90
2019-04-27T15:14:53.298Z,14.60
2019-04-27T15:19:07.472Z,14.30
2019-04-27T15:23:13.666Z,13.90
2019-04-27T15:27:21.098Z,13.40
2019-04-27T15:31:31.192Z,14.80
2019-04-27T15:35:44.052Z,15.80
2019-04-27T15:40:11.366Z,15.70
2019-04-27T15:44:14.613Z,14.90
2019-04-27T15:48:20.391Z,14.30
2019-04-27T15:52:30.190Z,14.20
2019-04-27T15:56:35.184Z,15.00
2019-04-27T16:00:41.219Z,15.20
2019-04-27T16:04:49.830Z,15.40
2019-04-27T16:08:54.359Z,15.70
2019-04-27T16:13:06.545Z,15.30
2019-04-27T16:17:11.194Z,15.00
2019-04-27T16:21:15.359Z,14.60
2019-04-27T16:25:23.528Z,14.10
2019-04-27T16:29:31.479Z,14.00
2019-04-27T16:33:39.093Z,13.80
2019-04-27T16:38:04.542Z,13.90
2019-04-27T16:42:14.184Z,13.50
2019-04-27T16:46:21.039Z,13.40
2019-04-27T16:50:26.746Z,13.40
2019-04-27T16:54:32.858Z,13.40
2019-04-27T16:58:39.714Z,13.50
2019-04-27T17:02:45.716Z,13.30
2019-04-27T17:06:51.697Z,13.30
2019-04-27T17:11:07.854Z,13.40
2019-04-27T17:15:23.558Z,13.30
2019-04-27T17:19:30.893Z,13.20
2019-04-27T17:23:36.569Z,13.20
2019-04-27T17:27:48.261Z,13.30
2019-04-27T17:31:56.727Z,13.20
2019-04-27T17:36:03.040Z,13.20
2019-04-27T17:40:09.509Z,13.10
2019-04-27T17:44:19.269Z,13.20
2019-04-27T17:48:22.856Z,13.60
2019-04-27T17:52:28.720Z,13.90
2019-04-27T17:56:36.353Z,13.80
2019-04-27T18:00:44.514Z,14.10
2019-04-27T18:04:49.413Z,14.00
2019-04-27T18:08:59.769Z,14.00
2019-04-27T18:13:02.590Z,13.80
2019-04-27T18:17:11.966Z,13.60
2019-04-27T18:21:19.453Z,13.30
2019-04-27T18:25:23.746Z,13.10
2019-04-27T18:29:30.819Z,12.10
2019-04-27T18:33:38.348Z,11.80
2019-04-27T18:37:44.096Z,12.00
2019-04-27T18:41:54.326Z,12.20
2019-04-27T18:45:59.282Z,12.40
2019-04-27T18:50:17.770Z,12.70
2019-04-27T18:54:23.740Z,12.80
2019-04-27T18:58:29.424Z,12.30
2019-04-27T19:02:35.105Z,11.20
2019-04-27T19:06:40.833Z,10.50
2019-04-27T19:10:46.512Z,10.60
2019-04-27T19:14:53.182Z,10.70
2019-04-27T19:19:00.477Z,10.90
2019-04-27T19:23:06.251Z,11.00
2019-04-27T19:27:20.581Z,10.80
2019-04-27T19:31:29.119Z,10.40
2019-04-27T19:35:34.861Z,10.80
2019-04-27T19:39:40.604Z,10.40
2019-04-27T19:43:46.381Z,9.80
2019-04-27T19:47:52.247Z,10.00
2019-04-27T19:51:58.846Z,10.60
2019-04-27T19:56:04.729Z,11.10
2019-04-27T20:00:15.647Z,11.10
2019-04-27T20:04:31.919Z,11.20
2019-04-27T20:08:42.174Z,11.40
2019-04-27T20:12:47.930Z,11.60
2019-04-27T20:16:53.626Z,11.10
2019-04-27T20:20:59.389Z,11.20
2019-04-27T20:25:06.539Z,11.20
2019-04-27T20:29:12.192Z,11.20
2019-04-27T20:33:17.911Z,10.80
2019-04-27T20:37:23.629Z,10.90
2019-04-27T20:41:29.337Z,10.70
2019-04-27T20:45:35.095Z,10.60
2019-04-27T20:49:40.763Z,9.80
2019-04-27T20:53:53.827Z,9.50
2019-04-27T20:58:02.707Z,9.40
2019-04-27T21:02:24.823Z,9.30
2019-04-27T21:06:35.172Z,9.00
2019-04-27T21:10:41.369Z,9.10
2019-04-27T21:14:47.081Z,9.10
2019-04-27T21:18:53.741Z,9.30
2019-04-27T21:22:59.442Z,9.30
2019-04-27T21:27:05.191Z,9.20
2019-04-27T21:31:12.659Z,9.40
2019-04-27T21:35:18.284Z,9.70
2019-04-27T21:39:23.978Z,9.50
2019-04-27T21:43:29.668Z,9.50
2019-04-27T21:47:35.355Z,9.20
2019-04-27T21:51:42.916Z,9.10
2019-04-27T21:55:50.774Z,8.80
2019-04-27T21:59:57.638Z,8.70
2019-04-27T22:04:04.650Z,8.60
2019-04-27T22:08:11.666Z,8.50
2019-04-27T22:12:21.317Z,8.50
2019-04-27T22:16:28.102Z,8.40
2019-04-27T22:20:35.071Z,8.20
2019-04-27T22:24:42.802Z,8.20
2019-04-27T22:28:49.597Z,8.40
2019-04-27T22:32:55.672Z,8.50
2019-04-27T22:37:02.686Z,8.30
2019-04-27T22:41:10.558Z,8.40
2019-04-27T22:45:19.277Z,8.40
2019-04-27T22:49:24.966Z,8.60
2019-04-27T22:53:32.415Z,8.60
2019-04-27T22:57:41.403Z,8.60
2019-04-27T23:01:51.729Z,8.60
2019-04-27T23:05:57.490Z,8.30
2019-04-27T23:10:03.969Z,8.20
2019-04-27T23:14:11.054Z,8.20
2019-04-27T23:18:17.902Z,8.10
2019-04-27T23:22:23.597Z,8.00
2019-04-27T23:26:31.056Z,7.90
2019-04-27T23:30:44.465Z,7.90
2019-04-27T23:34:51.446Z,8.00
2019-04-27T23:38:58.149Z,8.10
2019-04-27T23:43:03.836Z,8.10
2019-04-27T23:47:09.537Z,8.20
2019-04-27T23:51:16.851Z,8.50
2019-04-27T23:55:24.148Z,8.50
2019-04-27T23:59:31.493Z,8.30
